Overview Statistics Trail Chart Weather Telemetry Raw packets
 

This is the latest recevied weather packets stored in our database for station/object WA7SB-7. If no packets are shown the sender has not sent any weather packets the latest 10 day(s).

<< 180 181 182 183 184 185 186 >>
Time Temp. Humidity Pressure Rain* Wind** Luminosity Snow
1788040820 19.44° C 75% 1021.8 hPa 0 mm - - -
1788040758 19.44° C 75% 1021.8 hPa 0 mm - - -
1788040520 20° C 75% 1021.8 hPa 0 mm - - -
1788040461 20° C 74% 1021.8 hPa 0 mm - - -
1788040222 20° C 75% 1021.7 hPa 0 mm - - -
1788040164 20° C 75% 1021.7 hPa 0 mm - - -
1788039923 19.44° C 78% 1021.8 hPa 0 mm - - -
1788039859 19.44° C 78% 1021.7 hPa 0 mm - - -
1788039621 19.44° C 78% 1021.7 hPa 0 mm - - -
1788039563 19.44° C 78% 1021.7 hPa 0 mm - - -
1788039326 18.89° C 80% 1021.7 hPa 0 mm - - -
1788039266 18.89° C 79% 1021.7 hPa 0 mm - - -
1788039028 18.89° C 77% 1021.7 hPa 0 mm - - -
1788038970 18.89° C 78% 1021.8 hPa 0 mm - - -
1788038729 18.33° C 78% 1021.8 hPa 0 mm - - -
1788038671 18.33° C 78% 1021.8 hPa 0 mm - - -
1788038430 18.33° C 78% 1021.8 hPa 0 mm - - -
1788038352 18.33° C 77% 1021.8 hPa 0 mm - - -
1788038115 18.33° C 78% 1021.8 hPa 0 mm - - -
1788038055 18.33° C 78% 1021.8 hPa 0 mm - - -
1788037820 18.33° C 78% 1021.8 hPa 0 mm - - -
1788037761 18.89° C 77% 1021.8 hPa 0 mm - - -
1788037526 18.89° C 77% 1021.8 hPa 0 mm - - -
1788037466 18.89° C 77% 1021.8 hPa 0 mm - - -
1788037221 19.44° C 77% 1021.7 hPa 0 mm - - -

* Rain latest hour (hover to see other rain measurements)
** Current wind speed in m/s (hover to see current wind gust speed)